Nearby METAR (Airport) Reports

 

KPRN - Greenville, Alabama, USA
Distance from station: WNW 17mi, 28km
Updated: Thu, 01-Oct-2020 1:58am CDT
Clear
Clear
 Wind from calm
Wind: Calm
Temperature: 54°F , 12°C
Dew Point: 48°F , 9°C
Humidity: 82%
Barometer: 30.06 inHg , 1017.9 hPa
Clouds: Clear
Visibility: 10 miles , 16 km
2020/10/01 06:58 KPRN 010658Z AUTO 00000KT 10SM CLR 12/09 A3006 RMK AO2 SLP128 T01220094
KTOI - Troy, Alabama, USA
Distance from station: ENE 21mi, 34km
Updated: Thu, 01-Oct-2020 1:53am CDT
Clear
Clear
 Wind from calm
Wind: Calm
Temperature: 54°F , 12°C
Dew Point: 52°F , 11°C
Humidity: 94%
Barometer: 30.08 inHg , 1018.6 hPa
Clouds: Clear
Visibility: 9 miles , 14 km
2020/10/01 06:53 KTOI 010653Z AUTO 00000KT 9SM CLR 12/11 A3008 RMK AO2 SLP181 T01220111
K79J - Andalusia/Opp Ar, Alabama, USA
Distance from station: S 29mi, 47km
Updated: Thu, 01-Oct-2020 1:56am CDT
Clear
Clear
 Wind from calm
Wind: Calm
Temperature: 57°F , 14°C
Dew Point: 54°F , 12°C
Humidity: 88%
Barometer: 30.08 inHg , 1018.6 hPa
Clouds: Clear
Visibility: 10 miles , 16 km
2020/10/01 06:56 K79J 010656Z AUTO 00000KT 10SM CLR 14/12 A3008 RMK AO2 SLP180 T01440117
 
KMGM - Montgomery, Alabama, USA
Distance from station: N 39mi, 63km
Updated: Thu, 01-Oct-2020 1:53am CDT
Clear
Clear
 Wind from calm
Wind: Calm
Temperature: 55°F , 13°C
Dew Point: 54°F , 12°C
Humidity: 94%
Barometer: 30.07 inHg , 1018.3 hPa
Clouds: Clear
Visibility: 10 miles , 16 km
2020/10/01 06:53 KMGM 010653Z AUTO 00000KT 10SM CLR 13/12 A3007 RMK AO2 SLP181 T01280117
KMXF - Maxwell Afb/Mgm, Alabama, USA
Distance from station: N 44mi, 70km
Updated: Thu, 01-Oct-2020 2:41am CDT
Clear
Clear
 Wind from calm
Wind: Calm
Temperature: 55°F , 13°C
Dew Point: 54°F , 12°C
Humidity: 94%
Barometer: 30.05 inHg , 1017.6 hPa
Clouds: Clear
Visibility: 10 miles , 16 km
2020/10/01 07:41 KMXF 010741Z AUTO 00000KT 10SM CLR 13/12 A3005 RMK AO2 SLP178
KLOR - Lowe Ahp/Ft. Ruc, Alabama, USA
Distance from station: SE 44mi, 71km
Updated: Thu, 01-Oct-2020 1:58am CDT
Clear
Clear
 Wind from calm
Wind: Calm
Temperature: 54°F , 12°C
Dew Point: 52°F , 11°C
Humidity: 94%
Barometer: 30.07 inHg , 1018.3 hPa
Clouds: Clear
Visibility: 10 miles , 16 km
2020/10/01 06:58 KLOR 010658Z AUTO 00000KT 10SM CLR 12/11 A3007 RMK AO2 SLP165 T01160111
 
KGZH - Evergreen, Alabama, USA
Distance from station: WSW 46mi, 75km
Updated: Thu, 01-Oct-2020 1:53am CDT
Clear
Clear
 Wind from calm
Wind: Calm
Temperature: 54°F , 12°C
Dew Point: 52°F , 11°C
Humidity: 94%
Barometer: 30.08 inHg , 1018.6 hPa
Clouds: Clear
Visibility: 10 miles , 16 km
2020/10/01 06:53 KGZH 010653Z AUTO 00000KT 10SM CLR 12/11 A3008 RMK AO2 SLP183 T01220106
K0J4 - Florala Muni, Alabama, USA
Distance from station: S 47mi, 76km
Updated: Thu, 01-Oct-2020 1:58am CDT
Clear
Clear
 Wind from calm
Wind: Calm
Temperature: 55°F , 13°C
Dew Point: 52°F , 11°C
Humidity: 88%
Barometer: 30.09 inHg , 1019 hPa
Clouds: Clear
Visibility: 10 miles , 16 km
2020/10/01 06:58 K0J4 010658Z AUTO 00000KT 10SM CLR 13/11 A3009 RMK AO2 SLP186 T01330106
KOZR - Ozark/Cairns Aaf, Alabama, USA
Distance from station: SE 49mi, 78km
Updated: Thu, 01-Oct-2020 1:56am CDT
Clear
Clear
 Wind from calm
Wind: Calm
Temperature: 55°F , 13°C
Dew Point: 54°F , 12°C
Humidity: 94%
Barometer: 30.07 inHg , 1018.3 hPa
Clouds: Clear
Visibility: 10 miles , 16 km
2020/10/01 06:56 KOZR 010656Z AUTO 00000KT 10SM CLR 13/12 A3007 RMK AO2 SLP183 T01280119
 
KHEY - Ft Rucker/Hanche, Alabama, USA
Distance from station: ESE 49mi, 79km
Updated: Thu, 01-Oct-2020 1:58am CDT
Clear
Clear
 Wind from calm
Wind: Calm
Temperature: 54°F , 12°C
Dew Point: 54°F , 12°C
Humidity: 100%
Barometer: 30.06 inHg , 1017.9 hPa
Clouds: Clear
Visibility: 10 miles , 16 km
2020/10/01 06:58 KHEY 010658Z AUTO 00000KT 10SM CLR 12/12 A3006 RMK AO2 SLP180 T01210116
KDHN - Dothan, Alabama, USA
Distance from station: ESE 61mi, 97km
Updated: Thu, 01-Oct-2020 1:53am CDT
Clear
Clear
 Wind from calm
Wind: Calm
Temperature: 55°F , 13°C
Dew Point: 54°F , 12°C
Humidity: 94%
Barometer: 30.10 inHg , 1019.3 hPa
Clouds: Clear
Visibility: 10 miles , 16 km
2020/10/01 06:53 KDHN 010653Z AUTO 00000KT 10SM CLR 13/12 A3010 RMK AO2 SLP190 T01330122
KCEW - Crestview, Florida, USA
Distance from station: S 66mi, 107km
Updated: Thu, 01-Oct-2020 1:53am CDT
Clear
Clear
 Wind from calm
Wind: Calm
Temperature: 54°F , 12°C
Dew Point: 52°F , 11°C
Humidity: 94%
Barometer: 30.08 inHg , 1018.6 hPa
Clouds: Clear
Visibility: 8 miles , 13 km
2020/10/01 06:53 KCEW 010653Z AUTO 00000KT 8SM CLR 12/11 A3008 RMK AO2 SLP185 T01170106
 
KEUF - Eufaula, Alabama, USA
Distance from station: ENE 73mi, 118km
Updated: Thu, 01-Oct-2020 1:58am CDT
Clear
Clear
 Wind from calm
Wind: Calm
Temperature: 54°F , 12°C
Dew Point: 52°F , 11°C
Humidity: 94%
Barometer: 30.08 inHg , 1018.6 hPa
Clouds: Clear
Visibility: 8 miles , 13 km
2020/10/01 06:58 KEUF 010658Z AUTO 00000KT 8SM CLR 12/11 A3008 RMK AO2 SLP182 T01170111
KJKA - Gulf Shores, Alabama, USA
Distance from station: SSW 132mi, 212km
Updated: Tue, 15-Sep-2020 10:35pm CDT
NOT Current
Heavy rain
Heavy rain
 
Temperature: 73°F , 23°C
Dew Point: 73°F , 23°C
Humidity: 100%
Barometer: 29.46 inHg , 997.6 hPa
Summary: Heavy rain
Visibility: 1 3/4 miles , 2.8 km
2020/09/16 03:35 KJKA 160335Z AUTO 1 3/4SM +RA 23/23 A2946 RMK AO2 P0033 T02340230
KLSF - Ft Benning/Colum, Georgia, USA
Distance from station: SNE 89mi, 143km
Updated: Thu, 01-Oct-2020 2:36am CDT
Mist, Clear
Mist, Clear
 Wind from calm
Wind: Calm
Temperature: 52°F , 11°C
Dew Point: 50°F , 10°C
Humidity: 94%
Barometer: 30.06 inHg , 1017.9 hPa
Summary: Mist
Clouds: Clear
Visibility: 5 miles , 8 km
2020/10/01 07:36 KLSF 010736Z AUTO 00000KT 5SM BR CLR 11/10 A3006 RMK AO2 VIS 1 7/8 RWY15 SLP183 CHINO RWY15 $
 
KMOB - Mobile/Bates, Alabama, USA
Distance from station: SW 125mi, 202km
Updated: Thu, 01-Oct-2020 1:56am CDT
Clear
Clear
 Wind from calm
Wind: Calm
Temperature: 55°F , 13°C
Dew Point: 54°F , 12°C
Humidity: 94%
Barometer: 30.08 inHg , 1018.6 hPa
Clouds: Clear
Visibility: 10 miles , 16 km
2020/10/01 06:56 KMOB 010656Z AUTO 00000KT 10SM CLR 13/12 A3008 RMK AO2 SLP182 T01280117
KNMM - Meridian Nas, Mississippi, USA
Distance from station: WNW 151mi, 243km
Updated: Thu, 01-Oct-2020 1:56am CDT
Clear
Clear
 Wind from calm
Wind: Calm
Temperature: 54°F , 12°C
Dew Point: 52°F , 11°C
Humidity: 94%
Barometer: 30.06 inHg , 1017.9 hPa
Clouds: Clear
Visibility: 10 miles , 16 km
2020/10/01 06:56 KNMM 010656Z AUTO 00000KT 10SM CLR 12/11 A3006 RMK AO2 SLP188 T01220111
KQHY - Hurlbert (Ft Walton Bch), Florida, USA
Distance from station: S 94mi, 151km
Updated: Thu, 01-Oct-2020 1:56am CDT
Clear
Clear
 Wind from calm
Wind: Calm
Temperature: 59°F , 15°C
Dew Point: 55°F , 13°C
Humidity: 88%
Barometer: 30.06 inHg , 1017.9 hPa
Clouds: Clear
Visibility: 10 miles , 16 km
2020/10/01 06:56 KQHY 010656Z AUTO 00000KT 10SM CLR 15/13 A3006 RMK AO2 SLPNO T01490133
 
KTCL - Tuscaloosa, Alabama, USA
Distance from station: NNW 129mi, 207km
Updated: Thu, 01-Oct-2020 1:53am CDT
Clear
Clear
 Wind from calm
Wind: Calm
Temperature: 55°F , 13°C
Dew Point: 54°F , 12°C
Humidity: 94%
Barometer: 30.05 inHg , 1017.6 hPa
Clouds: Clear
Visibility: 10 miles , 16 km
2020/10/01 06:53 KTCL 010653Z AUTO 00000KT 10SM CLR 13/12 A3005 RMK AO2 SLP174 T01330122
KECP - Panama City, Florida, USA
Distance from station: SSE 122mi, 196km
Updated: Thu, 01-Oct-2020 1:53am CDT
Clear
Clear
 Wind from calm
Wind: Calm
Temperature: 57°F , 14°C
Dew Point: 57°F , 14°C
Humidity: 100%
Barometer: 30.06 inHg , 1017.9 hPa
Clouds: Clear
Visibility: 10 miles , 16 km
2020/10/01 06:53 KECP 010653Z AUTO 00000KT 10SM CLR 14/14 A3006 RMK AO2 RAB01E10 SLP189 P0000 T01440139 $
KCBM - Columbus Afb, Mississippi, USA
Distance from station: NW 175mi, 282km
Updated: Thu, 01-Oct-2020 1:56am CDT
Clear
Clear
 Wind from calm
Wind: Calm
Temperature: 54°F , 12°C
Dew Point: 50°F , 10°C
Humidity: 88%
Barometer: 30.02 inHg , 1016.6 hPa
Clouds: Clear
Visibility: 10 miles , 16 km
2020/10/01 06:56 KCBM 010656Z AUTO 00000KT 10SM CLR 12/10 A3002 RMK AO2 SLP167 T01160103 $
 
KBHM - Birmingham, Alabama, USA
Distance from station: N 132mi, 212km
Updated: Thu, 01-Oct-2020 1:53am CDT
Clear
Clear
 Wind from calm
Wind: Calm
Temperature: 55°F , 13°C
Dew Point: 52°F , 11°C
Humidity: 88%
Barometer: 30.07 inHg , 1018.3 hPa
Clouds: Clear
Visibility: 8 miles , 13 km
2020/10/01 06:53 KBHM 010653Z 00000KT 8SM CLR 13/11 A3007 RMK AO2 SLP177 T01280111
KAAF - Apalachicola, Florida, USA
Distance from station: SSE 156mi, 250km
Updated: Thu, 01-Oct-2020 1:53am CDT
Clear
Clear
 Wind from calm
Wind: Calm
Temperature: 59°F , 15°C
Dew Point: 57°F , 14°C
Humidity: 94%
Barometer: 30.06 inHg , 1017.9 hPa
Clouds: Clear
Visibility: 10 miles , 16 km
2020/10/01 06:53 KAAF 010653Z AUTO 00000KT 10SM CLR 15/14 A3006 RMK AO2 SLP178 T01500144 $
KATL - Atlanta, Georgia, USA
Distance from station: NE 177mi, 287km
Updated: Thu, 01-Oct-2020 1:52am CDT
Clear
Clear
 Wind from WSW
Wind: WSW 5 mph , 7 km/h
Temperature: 57°F , 14°C
Dew Point: 52°F , 11°C
Humidity: 82%
Barometer: 30.05 inHg , 1017.6 hPa
Clouds: Clear
Visibility: 10 miles , 16 km
2020/10/01 06:52 KATL 010652Z 25004KT 10SM CLR 14/11 A3005 RMK AO2 SLP171 T01440111
 
KGPT - Gulfport, Mississippi, USA
Distance from station: SW 192mi, 309km
Updated: Thu, 01-Oct-2020 1:53am CDT
Clear
Clear
 Wind from calm
Wind: Calm
Temperature: 59°F , 15°C
Dew Point: 55°F , 13°C
Humidity: 88%
Barometer: 30.07 inHg , 1018.3 hPa
Clouds: Clear
Visibility: 10 miles , 16 km
2020/10/01 06:53 KGPT 010653Z AUTO 00000KT 10SM CLR 15/13 A3007 RMK AO2 SLP182 T01500128
KNEW - New Orleans/Lake, Louisiana, USA
Distance from station: SW 255mi, 410km
Updated: Thu, 01-Oct-2020 1:53am CDT

 
Barometer: 30.08 inHg , 1018.6 hPa
2020/10/01 06:53 KNEW 010653Z AUTO A3008 RMK AO2 SLP181 PWINO PNO $
KP92 - Salt Point, Louisiana, USA
Distance from station: SW 347mi, 559km
Updated: Thu, 01-Oct-2020 1:59am CDT

 Wind from calm
Wind: Calm
Temperature: 66°F , 19°C
Dew Point: 61°F , 16°C
Humidity: 83%
Barometer: 30.07 inHg , 1018.3 hPa
2020/10/01 06:59 KP92 010659Z AUTO 00000KT 19/16 A3007 RMK AO1 SLP183 T01940156